sensor_id;sensor_type;location;lat;lon;timestamp;P1;durP1;ratioP1;P2;durP2;ratioP2
7365;SDS011;3723;52.220;8.792;2022-07-01T00:01:00;7.30;;;1.57;;
7365;SDS011;3723;52.220;8.792;2022-07-01T00:03:27;7.63;;;2.20;;
7365;SDS011;3723;52.220;8.792;2022-07-01T00:05:54;8.53;;;2.17;;
7365;SDS011;3723;52.220;8.792;2022-07-01T00:08:20;7.83;;;2.00;;
7365;SDS011;3723;52.220;8.792;2022-07-01T00:10:47;9.13;;;1.93;;
7365;SDS011;3723;52.220;8.792;2022-07-01T00:13:14;7.87;;;1.70;;
7365;SDS011;3723;52.220;8.792;2022-07-01T00:15:41;10.20;;;2.73;;
7365;SDS011;3723;52.220;8.792;2022-07-01T00:18:09;9.00;;;2.20;;
7365;SDS011;3723;52.220;8.792;2022-07-01T00:20:36;8.03;;;2.00;;
7365;SDS011;3723;52.220;8.792;2022-07-01T00:23:02;11.83;;;3.53;;
7365;SDS011;3723;52.220;8.792;2022-07-01T00:25:29;10.10;;;2.17;;
7365;SDS011;3723;52.220;8.792;2022-07-01T00:27:56;7.40;;;1.60;;
7365;SDS011;3723;52.220;8.792;2022-07-01T00:30:23;9.47;;;1.83;;
7365;SDS011;3723;52.220;8.792;2022-07-01T00:32:50;7.50;;;1.50;;
7365;SDS011;3723;52.220;8.792;2022-07-01T00:35:19;7.97;;;1.80;;
7365;SDS011;3723;52.220;8.792;2022-07-01T00:37:46;9.27;;;2.80;;
7365;SDS011;3723;52.220;8.792;2022-07-01T00:40:13;7.53;;;1.90;;
7365;SDS011;3723;52.220;8.792;2022-07-01T00:42:39;7.27;;;1.37;;
7365;SDS011;3723;52.220;8.792;2022-07-01T00:45:07;9.20;;;1.90;;
7365;SDS011;3723;52.220;8.792;2022-07-01T00:47:35;6.83;;;1.43;;
7365;SDS011;3723;52.220;8.792;2022-07-01T00:50:05;10.80;;;1.60;;
7365;SDS011;3723;52.220;8.792;2022-07-01T00:52:35;8.10;;;1.40;;
7365;SDS011;3723;52.220;8.792;2022-07-01T00:55:03;7.20;;;1.30;;
7365;SDS011;3723;52.220;8.792;2022-07-01T00:57:32;6.87;;;1.07;;
7365;SDS011;3723;52.220;8.792;2022-07-01T01:00:00;7.70;;;1.70;;
7365;SDS011;3723;52.220;8.792;2022-07-01T01:02:28;8.17;;;1.43;;
7365;SDS011;3723;52.220;8.792;2022-07-01T01:04:55;7.53;;;1.40;;
7365;SDS011;3723;52.220;8.792;2022-07-01T01:07:22;7.90;;;1.60;;
7365;SDS011;3723;52.220;8.792;2022-07-01T01:09:51;9.30;;;1.20;;
7365;SDS011;3723;52.220;8.792;2022-07-01T01:12:18;6.60;;;1.47;;
7365;SDS011;3723;52.220;8.792;2022-07-01T01:14:45;6.67;;;1.13;;
7365;SDS011;3723;52.220;8.792;2022-07-01T01:17:13;7.37;;;2.03;;
7365;SDS011;3723;52.220;8.792;2022-07-01T01:19:40;7.60;;;1.80;;
7365;SDS011;3723;52.220;8.792;2022-07-01T01:22:08;8.53;;;1.83;;
7365;SDS011;3723;52.220;8.792;2022-07-01T01:24:36;7.17;;;1.40;;
7365;SDS011;3723;52.220;8.792;2022-07-01T01:27:03;7.83;;;1.60;;
7365;SDS011;3723;52.220;8.792;2022-07-01T01:29:31;8.70;;;2.00;;
7365;SDS011;3723;52.220;8.792;2022-07-01T01:31:58;7.30;;;1.37;;
7365;SDS011;3723;52.220;8.792;2022-07-01T01:34:25;8.27;;;1.60;;
7365;SDS011;3723;52.220;8.792;2022-07-01T01:36:52;7.60;;;1.60;;
7365;SDS011;3723;52.220;8.792;2022-07-01T01:39:20;7.40;;;1.30;;
7365;SDS011;3723;52.220;8.792;2022-07-01T01:41:47;7.10;;;1.37;;
7365;SDS011;3723;52.220;8.792;2022-07-01T01:44:14;8.20;;;1.50;;
7365;SDS011;3723;52.220;8.792;2022-07-01T01:46:41;9.20;;;1.23;;
7365;SDS011;3723;52.220;8.792;2022-07-01T01:49:10;7.33;;;1.27;;
7365;SDS011;3723;52.220;8.792;2022-07-01T01:51:43;8.03;;;1.20;;
7365;SDS011;3723;52.220;8.792;2022-07-01T01:54:10;15.57;;;1.60;;
7365;SDS011;3723;52.220;8.792;2022-07-01T01:56:38;7.97;;;1.53;;
7365;SDS011;3723;52.220;8.792;2022-07-01T01:59:05;8.67;;;2.00;;
7365;SDS011;3723;52.220;8.792;2022-07-01T02:01:32;6.17;;;1.17;;
7365;SDS011;3723;52.220;8.792;2022-07-01T02:03:59;9.20;;;1.17;;
7365;SDS011;3723;52.220;8.792;2022-07-01T02:06:26;7.77;;;1.13;;
7365;SDS011;3723;52.220;8.792;2022-07-01T02:08:53;7.80;;;1.47;;
7365;SDS011;3723;52.220;8.792;2022-07-01T02:11:23;7.60;;;1.47;;
7365;SDS011;3723;52.220;8.792;2022-07-01T02:13:54;6.67;;;1.17;;
7365;SDS011;3723;52.220;8.792;2022-07-01T02:16:20;8.30;;;1.73;;
7365;SDS011;3723;52.220;8.792;2022-07-01T02:18:47;7.53;;;1.00;;
7365;SDS011;3723;52.220;8.792;2022-07-01T02:21:14;10.53;;;1.73;;
7365;SDS011;3723;52.220;8.792;2022-07-01T02:23:41;7.20;;;1.00;;
7365;SDS011;3723;52.220;8.792;2022-07-01T02:26:08;7.23;;;1.30;;
7365;SDS011;3723;52.220;8.792;2022-07-01T02:28:35;6.07;;;0.80;;
7365;SDS011;3723;52.220;8.792;2022-07-01T02:31:03;6.43;;;1.10;;
7365;SDS011;3723;52.220;8.792;2022-07-01T02:33:30;8.30;;;1.47;;
7365;SDS011;3723;52.220;8.792;2022-07-01T02:35:57;6.77;;;1.10;;
7365;SDS011;3723;52.220;8.792;2022-07-01T02:38:24;10.13;;;0.90;;
7365;SDS011;3723;52.220;8.792;2022-07-01T02:40:50;6.73;;;1.10;;
7365;SDS011;3723;52.220;8.792;2022-07-01T02:43:17;5.90;;;0.90;;
7365;SDS011;3723;52.220;8.792;2022-07-01T02:45:44;6.50;;;0.80;;
7365;SDS011;3723;52.220;8.792;2022-07-01T02:48:16;9.03;;;1.53;;
7365;SDS011;3723;52.220;8.792;2022-07-01T02:50:43;6.80;;;1.23;;
7365;SDS011;3723;52.220;8.792;2022-07-01T02:53:10;7.03;;;1.07;;
7365;SDS011;3723;52.220;8.792;2022-07-01T02:55:36;6.60;;;1.20;;
7365;SDS011;3723;52.220;8.792;2022-07-01T02:58:03;6.97;;;1.20;;
7365;SDS011;3723;52.220;8.792;2022-07-01T03:00:30;7.47;;;1.87;;
7365;SDS011;3723;52.220;8.792;2022-07-01T03:02:57;6.73;;;1.20;;
7365;SDS011;3723;52.220;8.792;2022-07-01T03:05:25;7.73;;;1.37;;
7365;SDS011;3723;52.220;8.792;2022-07-01T03:07:52;8.07;;;1.83;;
7365;SDS011;3723;52.220;8.792;2022-07-01T03:10:19;7.80;;;1.40;;
7365;SDS011;3723;52.220;8.792;2022-07-01T03:12:46;7.10;;;1.47;;
7365;SDS011;3723;52.220;8.792;2022-07-01T03:15:13;6.40;;;1.00;;
7365;SDS011;3723;52.220;8.792;2022-07-01T03:17:41;6.47;;;1.23;;
7365;SDS011;3723;52.220;8.792;2022-07-01T03:20:10;6.73;;;1.20;;
7365;SDS011;3723;52.220;8.792;2022-07-01T03:22:42;8.67;;;1.77;;
7365;SDS011;3723;52.220;8.792;2022-07-01T03:25:09;7.90;;;1.33;;
7365;SDS011;3723;52.220;8.792;2022-07-01T03:27:37;7.03;;;1.50;;
7365;SDS011;3723;52.220;8.792;2022-07-01T03:30:10;7.53;;;1.70;;
7365;SDS011;3723;52.220;8.792;2022-07-01T03:32:38;11.23;;;2.73;;
7365;SDS011;3723;52.220;8.792;2022-07-01T03:35:05;12.37;;;1.50;;
7365;SDS011;3723;52.220;8.792;2022-07-01T03:37:48;8.00;;;1.50;;
7365;SDS011;3723;52.220;8.792;2022-07-01T03:40:16;7.20;;;1.50;;
7365;SDS011;3723;52.220;8.792;2022-07-01T03:42:43;7.97;;;1.90;;
7365;SDS011;3723;52.220;8.792;2022-07-01T03:45:12;7.10;;;1.40;;
7365;SDS011;3723;52.220;8.792;2022-07-01T03:47:44;7.03;;;1.53;;
7365;SDS011;3723;52.220;8.792;2022-07-01T03:50:11;6.93;;;1.27;;
7365;SDS011;3723;52.220;8.792;2022-07-01T03:52:38;7.53;;;1.60;;
7365;SDS011;3723;52.220;8.792;2022-07-01T03:55:07;6.77;;;1.27;;
7365;SDS011;3723;52.220;8.792;2022-07-01T03:57:33;7.67;;;1.23;;
7365;SDS011;3723;52.220;8.792;2022-07-01T04:00:00;9.20;;;2.13;;
7365;SDS011;3723;52.220;8.792;2022-07-01T04:02:27;7.20;;;1.90;;
7365;SDS011;3723;52.220;8.792;2022-07-01T04:04:54;8.67;;;2.33;;
7365;SDS011;3723;52.220;8.792;2022-07-01T04:07:21;8.47;;;2.00;;
7365;SDS011;3723;52.220;8.792;2022-07-01T04:09:51;7.33;;;1.80;;
7365;SDS011;3723;52.220;8.792;2022-07-01T04:12:20;10.93;;;1.97;;
7365;SDS011;3723;52.220;8.792;2022-07-01T04:14:47;7.83;;;2.00;;
7365;SDS011;3723;52.220;8.792;2022-07-01T04:17:14;7.70;;;1.57;;
7365;SDS011;3723;52.220;8.792;2022-07-01T04:19:41;12.40;;;3.10;;
7365;SDS011;3723;52.220;8.792;2022-07-01T04:22:09;8.80;;;2.30;;
7365;SDS011;3723;52.220;8.792;2022-07-01T04:24:53;7.13;;;1.40;;
7365;SDS011;3723;52.220;8.792;2022-07-01T04:27:21;8.83;;;1.90;;
7365;SDS011;3723;52.220;8.792;2022-07-01T04:29:48;16.97;;;1.50;;
7365;SDS011;3723;52.220;8.792;2022-07-01T04:32:15;7.40;;;1.33;;
7365;SDS011;3723;52.220;8.792;2022-07-01T04:34:41;8.93;;;2.53;;
7365;SDS011;3723;52.220;8.792;2022-07-01T04:37:08;7.70;;;2.07;;
7365;SDS011;3723;52.220;8.792;2022-07-01T04:39:35;8.03;;;2.23;;
7365;SDS011;3723;52.220;8.792;2022-07-01T04:42:02;8.33;;;2.00;;
7365;SDS011;3723;52.220;8.792;2022-07-01T04:44:31;9.03;;;1.87;;
7365;SDS011;3723;52.220;8.792;2022-07-01T04:46:59;9.37;;;2.70;;
7365;SDS011;3723;52.220;8.792;2022-07-01T04:49:27;7.70;;;2.00;;
7365;SDS011;3723;52.220;8.792;2022-07-01T04:51:54;7.40;;;1.43;;
7365;SDS011;3723;52.220;8.792;2022-07-01T04:54:21;9.60;;;2.70;;
7365;SDS011;3723;52.220;8.792;2022-07-01T04:56:48;7.70;;;2.10;;
7365;SDS011;3723;52.220;8.792;2022-07-01T04:59:16;10.20;;;2.87;;
7365;SDS011;3723;52.220;8.792;2022-07-01T05:01:45;8.60;;;2.20;;
7365;SDS011;3723;52.220;8.792;2022-07-01T05:04:15;9.23;;;2.50;;
7365;SDS011;3723;52.220;8.792;2022-07-01T05:06:42;9.10;;;2.43;;
7365;SDS011;3723;52.220;8.792;2022-07-01T05:09:09;8.07;;;1.90;;
7365;SDS011;3723;52.220;8.792;2022-07-01T05:11:36;8.40;;;1.50;;
7365;SDS011;3723;52.220;8.792;2022-07-01T05:14:04;10.00;;;2.97;;
7365;SDS011;3723;52.220;8.792;2022-07-01T05:16:31;9.63;;;2.40;;
7365;SDS011;3723;52.220;8.792;2022-07-01T05:18:59;11.50;;;3.77;;
7365;SDS011;3723;52.220;8.792;2022-07-01T05:21:43;12.50;;;2.50;;
7365;SDS011;3723;52.220;8.792;2022-07-01T05:24:23;11.13;;;3.70;;
7365;SDS011;3723;52.220;8.792;2022-07-01T05:26:52;9.40;;;2.33;;
7365;SDS011;3723;52.220;8.792;2022-07-01T05:29:19;12.40;;;3.97;;
7365;SDS011;3723;52.220;8.792;2022-07-01T05:31:47;10.40;;;2.93;;
7365;SDS011;3723;52.220;8.792;2022-07-01T05:34:15;10.20;;;2.57;;
7365;SDS011;3723;52.220;8.792;2022-07-01T05:36:42;8.20;;;1.97;;
7365;SDS011;3723;52.220;8.792;2022-07-01T05:39:08;11.43;;;3.13;;
7365;SDS011;3723;52.220;8.792;2022-07-01T05:41:36;9.80;;;2.83;;
7365;SDS011;3723;52.220;8.792;2022-07-01T05:44:04;9.43;;;2.43;;
7365;SDS011;3723;52.220;8.792;2022-07-01T05:46:32;11.23;;;3.43;;
7365;SDS011;3723;52.220;8.792;2022-07-01T05:48:59;10.23;;;3.50;;
7365;SDS011;3723;52.220;8.792;2022-07-01T05:51:27;8.63;;;2.03;;
7365;SDS011;3723;52.220;8.792;2022-07-01T05:53:54;12.90;;;3.40;;
7365;SDS011;3723;52.220;8.792;2022-07-01T05:56:22;7.90;;;2.27;;
7365;SDS011;3723;52.220;8.792;2022-07-01T05:58:50;9.60;;;2.97;;
7365;SDS011;3723;52.220;8.792;2022-07-01T06:01:17;8.40;;;2.03;;
7365;SDS011;3723;52.220;8.792;2022-07-01T06:03:44;9.47;;;2.67;;
7365;SDS011;3723;52.220;8.792;2022-07-01T06:06:11;10.53;;;2.97;;
7365;SDS011;3723;52.220;8.792;2022-07-01T06:08:39;8.00;;;1.73;;
7365;SDS011;3723;52.220;8.792;2022-07-01T06:11:06;7.20;;;1.60;;
7365;SDS011;3723;52.220;8.792;2022-07-01T06:13:33;9.47;;;3.40;;
7365;SDS011;3723;52.220;8.792;2022-07-01T06:16:03;10.47;;;3.90;;
7365;SDS011;3723;52.220;8.792;2022-07-01T06:18:31;11.97;;;3.63;;
7365;SDS011;3723;52.220;8.792;2022-07-01T06:20:58;9.47;;;2.20;;
7365;SDS011;3723;52.220;8.792;2022-07-01T06:23:25;8.63;;;2.20;;
7365;SDS011;3723;52.220;8.792;2022-07-01T06:25:53;7.83;;;2.20;;
7365;SDS011;3723;52.220;8.792;2022-07-01T06:28:19;10.90;;;2.70;;
7365;SDS011;3723;52.220;8.792;2022-07-01T06:30:46;8.73;;;1.80;;
7365;SDS011;3723;52.220;8.792;2022-07-01T06:33:13;8.40;;;2.20;;
7365;SDS011;3723;52.220;8.792;2022-07-01T06:35:40;10.03;;;2.67;;
7365;SDS011;3723;52.220;8.792;2022-07-01T06:38:07;13.60;;;4.77;;
7365;SDS011;3723;52.220;8.792;2022-07-01T06:40:34;11.60;;;4.00;;
7365;SDS011;3723;52.220;8.792;2022-07-01T06:43:02;15.30;;;3.50;;
7365;SDS011;3723;52.220;8.792;2022-07-01T06:45:29;8.90;;;2.70;;
7365;SDS011;3723;52.220;8.792;2022-07-01T06:47:55;12.30;;;4.20;;
7365;SDS011;3723;52.220;8.792;2022-07-01T06:50:22;8.90;;;2.60;;
7365;SDS011;3723;52.220;8.792;2022-07-01T06:52:49;14.97;;;5.43;;
7365;SDS011;3723;52.220;8.792;2022-07-01T06:55:16;12.50;;;4.50;;
7365;SDS011;3723;52.220;8.792;2022-07-01T06:57:43;10.47;;;3.53;;
7365;SDS011;3723;52.220;8.792;2022-07-01T07:00:11;12.20;;;4.40;;
7365;SDS011;3723;52.220;8.792;2022-07-01T07:02:39;12.73;;;4.47;;
7365;SDS011;3723;52.220;8.792;2022-07-01T07:05:06;11.97;;;4.07;;
7365;SDS011;3723;52.220;8.792;2022-07-01T07:07:34;11.40;;;3.43;;
7365;SDS011;3723;52.220;8.792;2022-07-01T07:10:00;12.27;;;4.23;;
7365;SDS011;3723;52.220;8.792;2022-07-01T07:12:27;11.97;;;3.23;;
7365;SDS011;3723;52.220;8.792;2022-07-01T07:14:54;10.40;;;3.13;;
7365;SDS011;3723;52.220;8.792;2022-07-01T07:17:22;12.90;;;4.77;;
7365;SDS011;3723;52.220;8.792;2022-07-01T07:19:49;14.70;;;4.50;;
7365;SDS011;3723;52.220;8.792;2022-07-01T07:22:16;13.30;;;4.40;;
7365;SDS011;3723;52.220;8.792;2022-07-01T07:24:43;11.87;;;4.77;;
7365;SDS011;3723;52.220;8.792;2022-07-01T07:27:10;21.00;;;4.97;;
7365;SDS011;3723;52.220;8.792;2022-07-01T07:29:37;12.33;;;4.50;;
7365;SDS011;3723;52.220;8.792;2022-07-01T07:32:04;13.87;;;5.40;;
7365;SDS011;3723;52.220;8.792;2022-07-01T07:34:33;12.67;;;4.07;;
7365;SDS011;3723;52.220;8.792;2022-07-01T07:37:10;14.47;;;4.97;;
7365;SDS011;3723;52.220;8.792;2022-07-01T07:39:37;15.63;;;4.40;;
7365;SDS011;3723;52.220;8.792;2022-07-01T07:42:04;13.67;;;4.47;;
7365;SDS011;3723;52.220;8.792;2022-07-01T07:44:31;11.73;;;4.53;;
7365;SDS011;3723;52.220;8.792;2022-07-01T07:46:58;11.57;;;2.67;;
7365;SDS011;3723;52.220;8.792;2022-07-01T07:49:25;14.17;;;5.13;;
7365;SDS011;3723;52.220;8.792;2022-07-01T07:51:54;13.47;;;4.77;;
7365;SDS011;3723;52.220;8.792;2022-07-01T07:54:20;11.90;;;4.27;;
7365;SDS011;3723;52.220;8.792;2022-07-01T07:56:47;10.23;;;2.57;;
7365;SDS011;3723;52.220;8.792;2022-07-01T07:59:14;15.83;;;4.47;;
7365;SDS011;3723;52.220;8.792;2022-07-01T08:01:41;13.17;;;4.73;;
7365;SDS011;3723;52.220;8.792;2022-07-01T08:04:08;12.43;;;4.47;;
7365;SDS011;3723;52.220;8.792;2022-07-01T08:06:34;16.40;;;4.87;;
7365;SDS011;3723;52.220;8.792;2022-07-01T08:09:03;10.80;;;2.40;;
7365;SDS011;3723;52.220;8.792;2022-07-01T08:11:30;16.83;;;4.70;;
7365;SDS011;3723;52.220;8.792;2022-07-01T08:13:57;13.00;;;4.73;;
7365;SDS011;3723;52.220;8.792;2022-07-01T08:16:24;13.67;;;3.10;;
7365;SDS011;3723;52.220;8.792;2022-07-01T08:18:51;8.60;;;2.57;;
7365;SDS011;3723;52.220;8.792;2022-07-01T08:21:17;13.63;;;4.73;;
7365;SDS011;3723;52.220;8.792;2022-07-01T08:23:44;11.57;;;3.63;;
7365;SDS011;3723;52.220;8.792;2022-07-01T08:26:15;11.90;;;4.23;;
7365;SDS011;3723;52.220;8.792;2022-07-01T08:28:45;11.80;;;4.10;;
7365;SDS011;3723;52.220;8.792;2022-07-01T08:31:11;12.60;;;5.10;;
7365;SDS011;3723;52.220;8.792;2022-07-01T08:33:38;12.13;;;4.20;;
7365;SDS011;3723;52.220;8.792;2022-07-01T08:36:08;16.60;;;4.90;;
7365;SDS011;3723;52.220;8.792;2022-07-01T08:38:35;13.60;;;3.80;;
7365;SDS011;3723;52.220;8.792;2022-07-01T08:41:03;13.20;;;4.90;;
7365;SDS011;3723;52.220;8.792;2022-07-01T08:43:31;11.20;;;3.20;;
7365;SDS011;3723;52.220;8.792;2022-07-01T08:45:59;12.73;;;4.40;;
7365;SDS011;3723;52.220;8.792;2022-07-01T08:48:29;11.53;;;3.50;;
7365;SDS011;3723;52.220;8.792;2022-07-01T08:50:56;10.60;;;3.40;;
7365;SDS011;3723;52.220;8.792;2022-07-01T08:53:23;9.80;;;2.70;;
7365;SDS011;3723;52.220;8.792;2022-07-01T08:55:50;12.90;;;4.03;;
7365;SDS011;3723;52.220;8.792;2022-07-01T08:58:35;9.30;;;2.20;;
7365;SDS011;3723;52.220;8.792;2022-07-01T09:01:12;10.20;;;2.87;;
7365;SDS011;3723;52.220;8.792;2022-07-01T09:03:41;13.40;;;3.53;;
7365;SDS011;3723;52.220;8.792;2022-07-01T09:06:11;10.10;;;2.70;;
7365;SDS011;3723;52.220;8.792;2022-07-01T09:08:40;9.57;;;2.80;;
7365;SDS011;3723;52.220;8.792;2022-07-01T09:11:11;8.67;;;2.13;;
7365;SDS011;3723;52.220;8.792;2022-07-01T09:13:40;8.40;;;2.00;;
7365;SDS011;3723;52.220;8.792;2022-07-01T09:16:11;8.40;;;2.07;;
7365;SDS011;3723;52.220;8.792;2022-07-01T09:18:40;11.10;;;3.50;;
7365;SDS011;3723;52.220;8.792;2022-07-01T09:21:27;8.53;;;1.77;;
7365;SDS011;3723;52.220;8.792;2022-07-01T09:23:54;8.20;;;2.00;;
7365;SDS011;3723;52.220;8.792;2022-07-01T09:26:21;9.83;;;2.80;;
7365;SDS011;3723;52.220;8.792;2022-07-01T09:28:53;9.10;;;2.60;;
7365;SDS011;3723;52.220;8.792;2022-07-01T09:31:20;8.33;;;2.13;;
7365;SDS011;3723;52.220;8.792;2022-07-01T09:33:50;10.00;;;2.80;;
7365;SDS011;3723;52.220;8.792;2022-07-01T09:36:29;8.80;;;2.27;;
7365;SDS011;3723;52.220;8.792;2022-07-01T09:38:55;9.67;;;2.63;;
7365;SDS011;3723;52.220;8.792;2022-07-01T09:41:22;8.17;;;1.93;;
7365;SDS011;3723;52.220;8.792;2022-07-01T09:43:50;10.53;;;1.80;;
7365;SDS011;3723;52.220;8.792;2022-07-01T09:46:18;9.23;;;1.90;;
7365;SDS011;3723;52.220;8.792;2022-07-01T09:48:45;9.57;;;2.80;;
7365;SDS011;3723;52.220;8.792;2022-07-01T09:51:12;7.93;;;1.50;;
7365;SDS011;3723;52.220;8.792;2022-07-01T09:53:40;8.27;;;2.10;;
7365;SDS011;3723;52.220;8.792;2022-07-01T09:56:07;10.07;;;1.40;;
7365;SDS011;3723;52.220;8.792;2022-07-01T09:58:34;7.20;;;1.20;;
7365;SDS011;3723;52.220;8.792;2022-07-01T10:01:04;9.20;;;2.20;;
7365;SDS011;3723;52.220;8.792;2022-07-01T10:03:33;7.67;;;1.73;;
7365;SDS011;3723;52.220;8.792;2022-07-01T10:06:09;7.90;;;2.03;;
7365;SDS011;3723;52.220;8.792;2022-07-01T10:08:58;10.17;;;2.50;;
7365;SDS011;3723;52.220;8.792;2022-07-01T10:11:43;9.23;;;1.60;;
7365;SDS011;3723;52.220;8.792;2022-07-01T10:14:40;10.50;;;1.53;;
7365;SDS011;3723;52.220;8.792;2022-07-01T10:17:09;7.90;;;1.80;;
7365;SDS011;3723;52.220;8.792;2022-07-01T10:22:38;7.70;;;1.63;;
7365;SDS011;3723;52.220;8.792;2022-07-01T10:31:00;8.90;;;1.37;;
7365;SDS011;3723;52.220;8.792;2022-07-01T10:33:31;9.50;;;1.30;;
7365;SDS011;3723;52.220;8.792;2022-07-01T10:36:09;7.13;;;1.27;;
7365;SDS011;3723;52.220;8.792;2022-07-01T10:42:00;7.00;;;1.20;;
7365;SDS011;3723;52.220;8.792;2022-07-01T10:44:28;7.20;;;1.50;;
7365;SDS011;3723;52.220;8.792;2022-07-01T10:47:05;7.00;;;1.30;;
7365;SDS011;3723;52.220;8.792;2022-07-01T10:49:51;9.00;;;1.40;;
7365;SDS011;3723;52.220;8.792;2022-07-01T10:52:24;9.43;;;2.00;;
7365;SDS011;3723;52.220;8.792;2022-07-01T10:54:52;8.83;;;2.20;;
7365;SDS011;3723;52.220;8.792;2022-07-01T10:57:22;8.00;;;1.70;;
7365;SDS011;3723;52.220;8.792;2022-07-01T10:59:54;9.20;;;1.73;;
7365;SDS011;3723;52.220;8.792;2022-07-01T11:02:43;7.80;;;1.73;;
7365;SDS011;3723;52.220;8.792;2022-07-01T11:05:10;8.17;;;1.37;;
7365;SDS011;3723;52.220;8.792;2022-07-01T11:07:40;7.20;;;1.40;;
7365;SDS011;3723;52.220;8.792;2022-07-01T11:10:09;6.80;;;1.30;;
7365;SDS011;3723;52.220;8.792;2022-07-01T11:12:37;8.53;;;1.10;;
7365;SDS011;3723;52.220;8.792;2022-07-01T11:15:04;7.43;;;1.20;;
7365;SDS011;3723;52.220;8.792;2022-07-01T11:17:34;7.47;;;1.30;;
7365;SDS011;3723;52.220;8.792;2022-07-01T11:20:02;11.70;;;2.13;;
7365;SDS011;3723;52.220;8.792;2022-07-01T11:22:30;6.83;;;1.23;;
7365;SDS011;3723;52.220;8.792;2022-07-01T11:25:03;6.80;;;1.00;;
7365;SDS011;3723;52.220;8.792;2022-07-01T11:27:39;6.63;;;1.03;;
7365;SDS011;3723;52.220;8.792;2022-07-01T11:30:07;7.00;;;1.00;;
7365;SDS011;3723;52.220;8.792;2022-07-01T11:32:37;7.07;;;1.47;;
7365;SDS011;3723;52.220;8.792;2022-07-01T11:35:07;9.43;;;1.03;;
7365;SDS011;3723;52.220;8.792;2022-07-01T11:38:03;5.93;;;0.80;;
7365;SDS011;3723;52.220;8.792;2022-07-01T11:40:54;6.67;;;1.23;;
7365;SDS011;3723;52.220;8.792;2022-07-01T11:43:22;6.73;;;1.10;;
7365;SDS011;3723;52.220;8.792;2022-07-01T11:45:51;7.43;;;1.10;;
7365;SDS011;3723;52.220;8.792;2022-07-01T11:48:28;9.70;;;2.93;;
7365;SDS011;3723;52.220;8.792;2022-07-01T11:50:56;8.17;;;1.07;;
7365;SDS011;3723;52.220;8.792;2022-07-01T11:53:24;6.70;;;1.20;;
7365;SDS011;3723;52.220;8.792;2022-07-01T11:55:52;8.73;;;1.03;;
7365;SDS011;3723;52.220;8.792;2022-07-01T11:58:39;7.27;;;1.50;;
7365;SDS011;3723;52.220;8.792;2022-07-01T12:01:21;7.53;;;1.10;;
7365;SDS011;3723;52.220;8.792;2022-07-01T12:03:52;9.73;;;1.13;;
7365;SDS011;3723;52.220;8.792;2022-07-01T12:06:19;8.37;;;1.20;;
7365;SDS011;3723;52.220;8.792;2022-07-01T12:08:48;6.70;;;1.30;;
7365;SDS011;3723;52.220;8.792;2022-07-01T12:11:17;7.27;;;1.60;;
7365;SDS011;3723;52.220;8.792;2022-07-01T12:13:44;7.60;;;1.10;;
7365;SDS011;3723;52.220;8.792;2022-07-01T12:16:12;8.10;;;1.40;;
7365;SDS011;3723;52.220;8.792;2022-07-01T12:18:49;8.00;;;1.50;;
7365;SDS011;3723;52.220;8.792;2022-07-01T12:21:17;7.27;;;0.90;;
7365;SDS011;3723;52.220;8.792;2022-07-01T12:26:31;6.53;;;1.07;;
7365;SDS011;3723;52.220;8.792;2022-07-01T12:28:58;6.67;;;1.10;;
7365;SDS011;3723;52.220;8.792;2022-07-01T12:31:25;7.00;;;1.17;;
7365;SDS011;3723;52.220;8.792;2022-07-01T12:33:52;7.57;;;1.47;;
7365;SDS011;3723;52.220;8.792;2022-07-01T12:36:19;6.03;;;0.80;;
7365;SDS011;3723;52.220;8.792;2022-07-01T12:38:46;12.80;;;1.47;;
7365;SDS011;3723;52.220;8.792;2022-07-01T12:41:28;7.00;;;1.33;;
7365;SDS011;3723;52.220;8.792;2022-07-01T12:43:59;6.47;;;1.10;;
7365;SDS011;3723;52.220;8.792;2022-07-01T12:46:27;7.43;;;1.30;;
7365;SDS011;3723;52.220;8.792;2022-07-01T12:48:54;7.43;;;1.37;;
7365;SDS011;3723;52.220;8.792;2022-07-01T12:51:22;6.97;;;1.13;;
7365;SDS011;3723;52.220;8.792;2022-07-01T12:53:55;7.27;;;1.03;;
7365;SDS011;3723;52.220;8.792;2022-07-01T12:56:22;6.60;;;1.40;;
7365;SDS011;3723;52.220;8.792;2022-07-01T12:58:50;12.87;;;1.30;;
7365;SDS011;3723;52.220;8.792;2022-07-01T13:01:19;9.90;;;1.53;;
7365;SDS011;3723;52.220;8.792;2022-07-01T13:03:47;6.40;;;1.10;;
7365;SDS011;3723;52.220;8.792;2022-07-01T13:06:15;6.17;;;0.80;;
7365;SDS011;3723;52.220;8.792;2022-07-01T13:08:41;7.77;;;1.77;;
7365;SDS011;3723;52.220;8.792;2022-07-01T13:11:08;7.80;;;0.80;;
7365;SDS011;3723;52.220;8.792;2022-07-01T13:13:35;8.20;;;1.00;;
7365;SDS011;3723;52.220;8.792;2022-07-01T13:16:02;8.80;;;2.73;;
7365;SDS011;3723;52.220;8.792;2022-07-01T13:18:30;8.30;;;1.10;;
7365;SDS011;3723;52.220;8.792;2022-07-01T13:20:57;6.67;;;1.10;;
7365;SDS011;3723;52.220;8.792;2022-07-01T13:23:24;6.40;;;1.00;;
7365;SDS011;3723;52.220;8.792;2022-07-01T13:25:51;6.10;;;0.90;;
7365;SDS011;3723;52.220;8.792;2022-07-01T13:28:17;8.00;;;0.80;;
7365;SDS011;3723;52.220;8.792;2022-07-01T13:30:44;6.67;;;0.80;;
7365;SDS011;3723;52.220;8.792;2022-07-01T13:33:11;6.67;;;1.03;;
7365;SDS011;3723;52.220;8.792;2022-07-01T13:35:39;7.33;;;1.17;;
7365;SDS011;3723;52.220;8.792;2022-07-01T13:38:07;6.10;;;0.70;;
7365;SDS011;3723;52.220;8.792;2022-07-01T13:40:34;7.30;;;1.00;;
7365;SDS011;3723;52.220;8.792;2022-07-01T13:43:04;7.63;;;0.90;;
7365;SDS011;3723;52.220;8.792;2022-07-01T13:45:31;6.67;;;1.03;;
7365;SDS011;3723;52.220;8.792;2022-07-01T13:47:58;6.30;;;0.73;;
7365;SDS011;3723;52.220;8.792;2022-07-01T13:50:24;6.07;;;0.80;;
7365;SDS011;3723;52.220;8.792;2022-07-01T13:52:53;5.93;;;0.70;;
7365;SDS011;3723;52.220;8.792;2022-07-01T13:55:19;7.40;;;1.30;;
7365;SDS011;3723;52.220;8.792;2022-07-01T13:57:46;7.73;;;0.90;;
7365;SDS011;3723;52.220;8.792;2022-07-01T14:00:15;6.03;;;0.90;;
7365;SDS011;3723;52.220;8.792;2022-07-01T14:02:43;7.30;;;0.80;;
7365;SDS011;3723;52.220;8.792;2022-07-01T14:05:10;6.17;;;0.80;;
7365;SDS011;3723;52.220;8.792;2022-07-01T14:07:38;8.30;;;0.83;;
7365;SDS011;3723;52.220;8.792;2022-07-01T14:10:07;6.43;;;0.97;;
7365;SDS011;3723;52.220;8.792;2022-07-01T14:12:36;6.00;;;0.90;;
7365;SDS011;3723;52.220;8.792;2022-07-01T14:15:03;6.70;;;0.83;;
7365;SDS011;3723;52.220;8.792;2022-07-01T14:17:30;6.17;;;0.93;;
7365;SDS011;3723;52.220;8.792;2022-07-01T14:19:57;6.43;;;0.83;;
7365;SDS011;3723;52.220;8.792;2022-07-01T14:22:24;7.23;;;0.90;;
7365;SDS011;3723;52.220;8.792;2022-07-01T14:24:51;6.30;;;0.90;;
7365;SDS011;3723;52.220;8.792;2022-07-01T14:27:19;7.70;;;1.10;;
7365;SDS011;3723;52.220;8.792;2022-07-01T14:29:46;6.73;;;0.90;;
7365;SDS011;3723;52.220;8.792;2022-07-01T14:32:13;9.30;;;1.07;;
7365;SDS011;3723;52.220;8.792;2022-07-01T14:34:40;6.00;;;0.70;;
7365;SDS011;3723;52.220;8.792;2022-07-01T14:37:07;5.93;;;0.70;;
7365;SDS011;3723;52.220;8.792;2022-07-01T14:39:41;6.33;;;0.90;;
7365;SDS011;3723;52.220;8.792;2022-07-01T14:42:08;5.83;;;0.60;;
7365;SDS011;3723;52.220;8.792;2022-07-01T14:44:36;5.80;;;0.70;;
7365;SDS011;3723;52.220;8.792;2022-07-01T14:47:03;7.50;;;1.27;;
7365;SDS011;3723;52.220;8.792;2022-07-01T14:49:30;6.70;;;0.90;;
7365;SDS011;3723;52.220;8.792;2022-07-01T14:52:00;6.83;;;0.70;;
7365;SDS011;3723;52.220;8.792;2022-07-01T14:54:27;6.00;;;0.77;;
7365;SDS011;3723;52.220;8.792;2022-07-01T14:56:54;8.87;;;0.90;;
7365;SDS011;3723;52.220;8.792;2022-07-01T14:59:21;7.43;;;0.80;;
7365;SDS011;3723;52.220;8.792;2022-07-01T15:01:49;6.70;;;0.83;;
7365;SDS011;3723;52.220;8.792;2022-07-01T15:04:17;6.20;;;0.87;;
7365;SDS011;3723;52.220;8.792;2022-07-01T15:06:43;6.20;;;0.70;;
7365;SDS011;3723;52.220;8.792;2022-07-01T15:09:10;5.80;;;0.60;;
7365;SDS011;3723;52.220;8.792;2022-07-01T15:11:37;6.97;;;0.80;;
7365;SDS011;3723;52.220;8.792;2022-07-01T15:14:04;7.10;;;0.90;;
7365;SDS011;3723;52.220;8.792;2022-07-01T15:16:31;6.87;;;0.80;;
7365;SDS011;3723;52.220;8.792;2022-07-01T15:18:59;8.60;;;1.00;;
7365;SDS011;3723;52.220;8.792;2022-07-01T15:21:26;6.27;;;0.60;;
7365;SDS011;3723;52.220;8.792;2022-07-01T15:23:53;6.10;;;0.80;;
7365;SDS011;3723;52.220;8.792;2022-07-01T15:26:20;6.37;;;0.73;;
7365;SDS011;3723;52.220;8.792;2022-07-01T15:28:47;6.47;;;0.70;;
7365;SDS011;3723;52.220;8.792;2022-07-01T15:31:14;6.23;;;0.90;;
7365;SDS011;3723;52.220;8.792;2022-07-01T15:33:41;7.57;;;0.70;;
7365;SDS011;3723;52.220;8.792;2022-07-01T15:36:10;7.90;;;0.67;;